Time;durP1;ratioP1;P1;durP2;ratioP2;P2;SDS_P1;SDS_P2;PMS_P1;PMS_P2;Temp;Humidity;BMP_temperature;BMP_pressure;BME280_temperature;BME280_humidity;BME280_pressure;Samples;Min_cycle;Max_cycle;Signal;HPM_P1;HPM_P2
2022/05/01 00:01:08;;;;;;;;;;;11.00;99.90;;;;;;5133752;27;19915;-77
2022/05/01 00:03:35;;;;;;;;;;;11.10;99.90;;;;;;5134614;27;19932;-77
2022/05/01 00:06:05;;;;;;;;;;;11.10;99.90;;;;;;5134211;27;20348;-77
2022/05/01 00:08:31;;;;;;;;;;;11.10;99.90;;;;;;5134038;27;19908;-77
2022/05/01 00:10:57;;;;;;;;;;;11.10;99.90;;;;;;5133965;27;20452;-77
2022/05/01 00:13:23;;;;;;;;;;;11.10;99.90;;;;;;5114990;27;19912;-77
2022/05/01 00:15:49;;;;;;;;;;;11.10;99.90;;;;;;5134371;27;19962;-77
2022/05/01 00:18:15;;;;;;;;;;;11.00;99.90;;;;;;5134164;27;19915;-77
2022/05/01 00:20:41;;;;;;;;;;;11.00;99.90;;;;;;5134034;27;19907;-77
2022/05/01 00:23:06;;;;;;;;;;;11.00;99.90;;;;;;5133249;27;19990;-77
2022/05/01 00:25:32;;;;;;;;;;;11.00;99.90;;;;;;5133978;27;19907;-77
2022/05/01 00:27:58;;;;;;;;;;;10.90;99.90;;;;;;5134159;27;20061;-77
2022/05/01 00:30:26;;;;;;;;;;;10.90;99.90;;;;;;5133501;27;19911;-77
2022/05/01 00:38:20;;;;;;;;;;;10.90;99.90;;;;;;5133265;27;19954;-77
2022/05/01 00:40:46;;;;;;;;;;;11.00;99.90;;;;;;5134008;27;19912;-77
2022/05/01 00:43:11;;;;;;;;;;;10.90;99.90;;;;;;5114643;27;20510;-77
2022/05/01 00:45:37;;;;;;;;;;;11.00;99.90;;;;;;5133923;27;19912;-77
2022/05/01 00:48:03;;;;;;;;;;;10.90;99.90;;;;;;5133913;27;19962;-77
2022/05/01 00:50:28;;;;;;;;;;;10.90;99.90;;;;;;5133210;27;20207;-77
2022/05/01 00:52:54;;;;;;;;;;;10.90;99.90;;;;;;5133502;28;20349;-77
2022/05/01 00:55:20;;;;;;;;;;;11.00;99.90;;;;;;5133052;28;19907;-77
2022/05/01 00:57:47;;;;;;;;;;;11.00;99.90;;;;;;5133271;28;19964;-77
2022/05/01 01:00:13;;;;;;;;;;;11.00;99.90;;;;;;5133216;28;20301;-77
2022/05/01 01:02:38;;;;;;;;;;;11.00;99.90;;;;;;5133647;28;19990;-77
2022/05/01 01:05:05;;;;;;;;;;;10.90;99.90;;;;;;5115328;28;19955;-77
2022/05/01 01:07:31;;;;;;;;;;;10.90;99.90;;;;;;5133025;28;19907;-77
2022/05/01 01:09:56;;;;;;;;;;;10.90;99.90;;;;;;5133432;28;20420;-77
2022/05/01 01:15:10;;;;;;;;;;;10.90;99.90;;;;;;5133557;28;19914;-76
2022/05/01 01:17:37;;;;;;;;;;;10.90;99.90;;;;;;5133409;28;19907;-77
2022/05/01 01:20:07;;;;;;;;;;;10.90;99.90;;;;;;5133624;28;19994;-77
2022/05/01 01:22:33;;;;;;;;;;;10.90;99.90;;;;;;5132940;28;19914;-77
2022/05/01 01:24:58;;;;;;;;;;;10.90;99.90;;;;;;5133556;28;19986;-77
2022/05/01 01:27:24;;;;;;;;;;;10.90;99.90;;;;;;5132741;28;19911;-77
2022/05/01 01:32:38;;;;;;;;;;;10.90;99.90;;;;;;5133078;28;19937;-77
2022/05/01 01:35:05;;;;;;;;;;;10.90;99.90;;;;;;5117067;27;19946;-77
2022/05/01 01:37:32;;;;;;;;;;;10.90;99.90;;;;;;5136734;27;20382;-78
2022/05/01 01:39:58;;;;;;;;;;;10.90;99.90;;;;;;5137389;27;19912;-77
2022/05/01 01:42:24;;;;;;;;;;;10.90;99.90;;;;;;5136556;27;19918;-77
2022/05/01 01:44:50;;;;;;;;;;;11.00;99.90;;;;;;5137328;27;19907;-77
2022/05/01 01:47:17;;;;;;;;;;;10.90;99.90;;;;;;5136520;27;19955;-77
2022/05/01 01:49:42;;;;;;;;;;;11.00;99.90;;;;;;5136744;27;19919;-77
2022/05/01 01:52:08;;;;;;;;;;;11.00;99.90;;;;;;5136906;27;19911;-76
2022/05/01 01:54:34;;;;;;;;;;;11.00;99.90;;;;;;5136175;27;19972;-76
2022/05/01 01:56:59;;;;;;;;;;;10.90;99.90;;;;;;5136644;27;19920;-77
2022/05/01 01:59:25;;;;;;;;;;;10.90;99.90;;;;;;5134201;27;19907;-77
2022/05/01 02:01:51;;;;;;;;;;;11.00;99.90;;;;;;5136863;27;19914;-77
2022/05/01 02:04:17;;;;;;;;;;;10.90;99.90;;;;;;5136363;27;19998;-77
2022/05/01 02:06:45;;;;;;;;;;;10.90;99.90;;;;;;5135831;27;21311;-76
2022/05/01 02:09:12;;;;;;;;;;;10.90;99.90;;;;;;5136827;27;19918;-77
2022/05/01 02:11:37;;;;;;;;;;;10.90;99.90;;;;;;5136625;27;19916;-77
2022/05/01 02:14:05;;;;;;;;;;;10.90;99.90;;;;;;5136452;27;20276;-77
2022/05/01 02:16:30;;;;;;;;;;;10.90;99.90;;;;;;5135835;27;19907;-77
2022/05/01 02:18:57;;;;;;;;;;;10.90;99.90;;;;;;5136749;27;19914;-76
2022/05/01 02:21:35;;;;;;;;;;;10.90;99.90;;;;;;5135614;27;20418;-77
2022/05/01 02:24:10;;;;;;;;;;;10.90;99.90;;;;;;5136162;27;20394;-77
2022/05/01 02:26:36;;;;;;;;;;;10.90;99.90;;;;;;5136090;27;20671;-76
2022/05/01 02:29:03;;;;;;;;;;;10.90;99.90;;;;;;5136548;27;19908;-77
2022/05/01 02:31:28;;;;;;;;;;;10.90;99.90;;;;;;5135908;27;19915;-77
2022/05/01 02:33:54;;;;;;;;;;;10.90;99.90;;;;;;5135857;27;20352;-77
2022/05/01 02:36:20;;;;;;;;;;;10.90;99.90;;;;;;5135708;27;19994;-77
2022/05/01 02:38:47;;;;;;;;;;;10.90;99.90;;;;;;5136339;27;19950;-77
2022/05/01 02:41:14;;;;;;;;;;;10.90;99.90;;;;;;5136035;27;20360;-77
2022/05/01 02:43:39;;;;;;;;;;;10.90;99.90;;;;;;5135614;27;19911;-77
2022/05/01 02:46:05;;;;;;;;;;;10.90;99.90;;;;;;5135826;27;20253;-77
2022/05/01 02:48:31;;;;;;;;;;;10.90;99.90;;;;;;5117061;27;19907;-77
2022/05/01 02:50:56;;;;;;;;;;;10.90;99.90;;;;;;5117532;27;20010;-77
2022/05/01 02:53:22;;;;;;;;;;;10.90;99.90;;;;;;5135169;27;19919;-77
2022/05/01 02:55:47;;;;;;;;;;;10.90;99.90;;;;;;5135613;27;19911;-77
2022/05/01 02:58:13;;;;;;;;;;;10.90;99.90;;;;;;5136022;27;19918;-77
2022/05/01 03:00:38;;;;;;;;;;;10.90;99.90;;;;;;5135124;27;19956;-77
2022/05/01 03:03:04;;;;;;;;;;;10.80;99.90;;;;;;5135730;27;19915;-77
2022/05/01 03:05:30;;;;;;;;;;;10.80;99.90;;;;;;5135137;27;19969;-77
2022/05/01 03:07:56;;;;;;;;;;;10.90;99.90;;;;;;5135363;27;19973;-77
2022/05/01 03:10:22;;;;;;;;;;;10.80;99.90;;;;;;5134588;27;20264;-76
2022/05/01 03:12:47;;;;;;;;;;;10.80;99.90;;;;;;5135222;27;19957;-77
2022/05/01 03:15:13;;;;;;;;;;;10.80;99.90;;;;;;5135246;27;19943;-77
2022/05/01 03:23:07;;;;;;;;;;;10.80;99.90;;;;;;5135170;27;20383;-77
2022/05/01 03:25:33;;;;;;;;;;;10.80;99.90;;;;;;5134475;27;19908;-77
2022/05/01 03:27:58;;;;;;;;;;;10.80;99.90;;;;;;5135345;27;19964;-77
2022/05/01 03:30:24;;;;;;;;;;;10.90;99.90;;;;;;5134651;27;19912;-76
2022/05/01 03:32:50;;;;;;;;;;;10.90;99.90;;;;;;5135099;27;19919;-77
2022/05/01 03:35:15;;;;;;;;;;;10.90;99.90;;;;;;5135129;27;20234;-77
2022/05/01 03:37:42;;;;;;;;;;;10.90;99.90;;;;;;5134607;27;19912;-77
2022/05/01 03:40:08;;;;;;;;;;;10.90;99.90;;;;;;5134835;27;20348;-77
2022/05/01 03:42:34;;;;;;;;;;;10.90;99.90;;;;;;5134447;27;19907;-77
2022/05/01 03:44:59;;;;;;;;;;;10.90;99.90;;;;;;5135042;27;20329;-77
2022/05/01 03:47:25;;;;;;;;;;;10.90;99.90;;;;;;5134000;27;19960;-77
2022/05/01 03:49:50;;;;;;;;;;;10.90;99.90;;;;;;5134848;27;19957;-77
2022/05/01 03:52:16;;;;;;;;;;;10.90;99.90;;;;;;5135008;27;19911;-77
2022/05/01 03:54:42;;;;;;;;;;;10.90;99.90;;;;;;5134192;27;19908;-77
2022/05/01 03:57:09;;;;;;;;;;;10.90;99.90;;;;;;5134080;27;20367;-77
2022/05/01 03:59:34;;;;;;;;;;;10.90;99.90;;;;;;5133796;27;20276;-78
2022/05/01 04:02:00;;;;;;;;;;;10.90;99.90;;;;;;5116232;27;19914;-76
2022/05/01 04:04:26;;;;;;;;;;;10.90;99.90;;;;;;5133918;27;19918;-77
2022/05/01 04:06:51;;;;;;;;;;;10.90;99.90;;;;;;5116117;27;19907;-77
2022/05/01 04:09:17;;;;;;;;;;;10.90;99.90;;;;;;5134618;27;19963;-77
2022/05/01 04:11:42;;;;;;;;;;;10.90;99.90;;;;;;5133747;27;20367;-77
2022/05/01 04:14:08;;;;;;;;;;;10.90;99.90;;;;;;5134558;27;19911;-77
2022/05/01 04:16:33;;;;;;;;;;;10.90;99.90;;;;;;5134223;27;19908;-77
2022/05/01 04:18:59;;;;;;;;;;;10.90;99.90;;;;;;5134507;27;19907;-77
2022/05/01 04:21:25;;;;;;;;;;;11.00;99.90;;;;;;5133687;27;20368;-77
2022/05/01 04:23:51;;;;;;;;;;;10.90;99.90;;;;;;5134353;27;20352;-77
2022/05/01 04:26:16;;;;;;;;;;;11.00;99.90;;;;;;5133987;27;19907;-77
2022/05/01 04:29:36;;;;;;;;;;;11.00;99.90;;;;;;5133414;27;19938;-77
2022/05/01 04:31:27;;;;;;;;;;;11.00;99.90;;;;;;5133256;27;20065;-77
2022/05/01 04:33:53;;;;;;;;;;;11.00;99.90;;;;;;5134376;27;20390;-77
2022/05/01 04:36:19;;;;;;;;;;;11.00;99.90;;;;;;5134140;27;20260;-77
2022/05/01 04:38:45;;;;;;;;;;;11.00;99.90;;;;;;5133659;27;19908;-77
2022/05/01 04:41:10;;;;;;;;;;;11.00;99.90;;;;;;5133843;27;20383;-77
2022/05/01 04:43:36;;;;;;;;;;;11.00;99.90;;;;;;5133560;27;20003;-77
2022/05/01 04:46:02;;;;;;;;;;;11.00;99.90;;;;;;5115548;27;19907;-77
2022/05/01 04:48:28;;;;;;;;;;;11.00;99.90;;;;;;5133314;27;20284;-77
2022/05/01 04:50:54;;;;;;;;;;;11.00;99.90;;;;;;5133952;27;19912;-77
2022/05/01 04:53:21;;;;;;;;;;;11.00;99.90;;;;;;5133790;27;19917;-77
2022/05/01 04:55:47;;;;;;;;;;;11.00;99.90;;;;;;5133183;28;20750;-77
2022/05/01 04:58:14;;;;;;;;;;;11.00;99.90;;;;;;5133902;28;19998;-77
2022/05/01 05:00:40;;;;;;;;;;;11.00;99.90;;;;;;5133353;28;19907;-77
2022/05/01 05:03:06;;;;;;;;;;;11.00;99.90;;;;;;5133814;28;19907;-77
2022/05/01 05:05:32;;;;;;;;;;;11.00;99.90;;;;;;5133320;28;19909;-77
2022/05/01 05:09:53;;;;;;;;;;;11.00;99.90;;;;;;5133486;28;19912;-76
2022/05/01 05:10:47;;;;;;;;;;;11.00;99.90;;;;;;5136735;27;20389;-77
2022/05/01 05:13:14;;;;;;;;;;;11.00;99.90;;;;;;5137394;27;19912;-77
2022/05/01 05:15:39;;;;;;;;;;;11.00;99.90;;;;;;5137173;27;19914;-76
2022/05/01 05:18:05;;;;;;;;;;;11.00;99.90;;;;;;5137741;27;19907;-77
2022/05/01 05:20:31;;;;;;;;;;;11.00;99.90;;;;;;5136563;27;19907;-76
2022/05/01 05:22:56;;;;;;;;;;;11.00;99.90;;;;;;5137566;27;19930;-76
2022/05/01 05:25:22;;;;;;;;;;;11.00;99.90;;;;;;5137533;27;20005;-77
2022/05/01 05:27:47;;;;;;;;;;;11.00;99.90;;;;;;5136596;27;20092;-76
2022/05/01 05:30:13;;;;;;;;;;;11.00;99.90;;;;;;5137330;27;19956;-76
2022/05/01 05:32:39;;;;;;;;;;;11.00;99.90;;;;;;5137176;27;20344;-76
2022/05/01 05:35:05;;;;;;;;;;;11.00;99.90;;;;;;5119302;27;20010;-77
2022/05/01 05:37:31;;;;;;;;;;;11.00;99.90;;;;;;5136952;27;19908;-76
2022/05/01 05:39:57;;;;;;;;;;;11.00;99.90;;;;;;5137378;27;19907;-77
2022/05/01 05:42:23;;;;;;;;;;;11.00;99.90;;;;;;5137192;27;19907;-77
2022/05/01 05:44:48;;;;;;;;;;;11.00;99.90;;;;;;5136801;27;19935;-77
2022/05/01 05:47:14;;;;;;;;;;;11.00;99.90;;;;;;5137319;27;20344;-77
2022/05/01 05:49:39;;;;;;;;;;;10.90;99.90;;;;;;5136427;27;20002;-77
2022/05/01 05:52:05;;;;;;;;;;;11.00;99.90;;;;;;5137319;27;19911;-77
2022/05/01 05:54:32;;;;;;;;;;;11.00;99.90;;;;;;5136461;27;20321;-77
2022/05/01 05:56:58;;;;;;;;;;;11.00;99.90;;;;;;5137084;27;20014;-77
2022/05/01 05:59:23;;;;;;;;;;;11.00;99.90;;;;;;5137148;27;19950;-77
2022/05/01 06:01:49;;;;;;;;;;;10.90;99.90;;;;;;5136745;27;19939;-77
2022/05/01 06:04:14;;;;;;;;;;;10.90;99.90;;;;;;5137204;27;19907;-77
2022/05/01 06:06:40;;;;;;;;;;;10.90;99.90;;;;;;5136070;27;20267;-77
2022/05/01 06:09:07;;;;;;;;;;;10.90;99.90;;;;;;5136756;27;19990;-77
2022/05/01 06:11:32;;;;;;;;;;;10.90;99.90;;;;;;5136225;27;19962;-77
2022/05/01 06:13:58;;;;;;;;;;;11.00;99.90;;;;;;5136833;27;19946;-77
2022/05/01 06:16:23;;;;;;;;;;;11.00;99.90;;;;;;5137151;27;19908;-77
2022/05/01 06:18:49;;;;;;;;;;;11.00;99.90;;;;;;5136506;27;19911;-77
2022/05/01 06:21:15;;;;;;;;;;;11.00;99.90;;;;;;5136083;27;19987;-77
2022/05/01 06:23:40;;;;;;;;;;;11.00;99.90;;;;;;5135953;27;19937;-77
2022/05/01 06:26:07;;;;;;;;;;;11.00;99.90;;;;;;5136739;27;19908;-77
2022/05/01 06:28:33;;;;;;;;;;;11.00;99.90;;;;;;5135974;27;19908;-76
2022/05/01 06:30:58;;;;;;;;;;;11.00;99.90;;;;;;5136453;27;19918;-77
2022/05/01 06:33:24;;;;;;;;;;;11.00;99.90;;;;;;5136461;27;20344;-77
2022/05/01 06:35:53;;;;;;;;;;;11.00;99.90;;;;;;5136117;27;20311;-77
2022/05/01 06:38:19;;;;;;;;;;;11.00;99.90;;;;;;5136253;27;19907;-78
2022/05/01 06:40:46;;;;;;;;;;;11.00;99.90;;;;;;5141083;27;19908;-78
2022/05/01 06:43:12;;;;;;;;;;;11.00;99.90;;;;;;5145488;27;19918;-78
2022/05/01 06:45:37;;;;;;;;;;;11.00;99.90;;;;;;5131901;27;19908;-79
2022/05/01 06:48:03;;;;;;;;;;;11.00;99.90;;;;;;5156838;27;20368;-79
2022/05/01 06:50:30;;;;;;;;;;;11.10;99.90;;;;;;5156564;27;20315;-80
2022/05/01 06:52:55;;;;;;;;;;;11.10;99.90;;;;;;5156262;27;20009;-79
2022/05/01 06:55:23;;;;;;;;;;;11.00;99.90;;;;;;5156532;27;20391;-78
2022/05/01 06:57:49;;;;;;;;;;;11.00;99.90;;;;;;5155737;27;19919;-78
2022/05/01 07:00:15;;;;;;;;;;;11.10;99.90;;;;;;5128246;27;19911;-78
2022/05/01 07:02:50;;;;;;;;;;;11.10;99.90;;;;;;5146417;27;19907;-78
2022/05/01 07:05:17;;;;;;;;;;;11.10;99.90;;;;;;5144658;27;19907;-78
2022/05/01 07:07:42;;;;;;;;;;;11.10;99.90;;;;;;5145091;27;19976;-77
2022/05/01 07:10:08;;;;;;;;;;;11.10;99.90;;;;;;5143836;27;20394;-77
2022/05/01 07:12:34;;;;;;;;;;;11.10;99.90;;;;;;5146051;27;19918;-78
2022/05/01 07:15:00;;;;;;;;;;;11.20;99.90;;;;;;5150399;27;19907;-77
2022/05/01 07:17:26;;;;;;;;;;;11.20;99.90;;;;;;5156186;27;20001;-77
2022/05/01 07:19:52;;;;;;;;;;;11.20;99.90;;;;;;5155131;27;20375;-77
2022/05/01 07:22:17;;;;;;;;;;;11.30;99.90;;;;;;5143478;27;19915;-77
2022/05/01 07:24:43;;;;;;;;;;;11.30;99.90;;;;;;5145628;27;20359;-77
2022/05/01 07:27:09;;;;;;;;;;;11.30;99.90;;;;;;5137723;27;19943;-77
2022/05/01 07:29:35;;;;;;;;;;;11.30;99.90;;;;;;5134749;27;19911;-77
2022/05/01 07:32:00;;;;;;;;;;;11.40;99.90;;;;;;5133807;27;19912;-77
2022/05/01 07:34:26;;;;;;;;;;;11.40;99.90;;;;;;5145427;27;19998;-77
2022/05/01 07:36:51;;;;;;;;;;;11.40;99.90;;;;;;5146547;27;20355;-77
2022/05/01 07:39:17;;;;;;;;;;;11.40;99.90;;;;;;5137511;27;19908;-76
2022/05/01 07:41:42;;;;;;;;;;;11.40;99.90;;;;;;5134444;27;19907;-77
2022/05/01 07:44:11;;;;;;;;;;;11.40;99.90;;;;;;5135434;27;19915;-77
2022/05/01 07:46:38;;;;;;;;;;;11.40;99.90;;;;;;5134803;27;19944;-76
2022/05/01 07:49:04;;;;;;;;;;;11.50;99.90;;;;;;5135180;27;19908;-77
2022/05/01 07:51:30;;;;;;;;;;;11.50;99.90;;;;;;5134464;27;20364;-77
2022/05/01 07:53:58;;;;;;;;;;;11.50;99.90;;;;;;5134270;27;19907;-76
2022/05/01 07:56:27;;;;;;;;;;;11.50;99.90;;;;;;5134753;27;19926;-77
2022/05/01 07:58:52;;;;;;;;;;;11.60;99.90;;;;;;5134487;27;19951;-77
2022/05/01 08:01:18;;;;;;;;;;;11.60;99.90;;;;;;5134781;27;20309;-77
2022/05/01 08:06:28;;;;;;;;;;;11.50;99.90;;;;;;5134611;27;19918;-77
2022/05/01 08:08:54;;;;;;;;;;;11.60;99.90;;;;;;5133961;27;19907;-77
2022/05/01 08:11:19;;;;;;;;;;;11.60;99.90;;;;;;5134426;27;19911;-77
2022/05/01 08:13:45;;;;;;;;;;;11.60;99.90;;;;;;5133859;27;19918;-77
2022/05/01 08:16:10;;;;;;;;;;;11.50;99.90;;;;;;5134079;27;19952;-77
2022/05/01 08:21:40;;;;;;;;;;;11.50;99.90;;;;;;5030544;28;19931;-77
2022/05/01 08:24:06;;;;;;;;;;;11.50;99.90;;;;;;5030684;28;20362;-76
2022/05/01 08:26:33;;;;;;;;;;;11.60;99.90;;;;;;5071949;27;19988;-76
2022/05/01 08:28:59;;;;;;;;;;;11.60;99.90;;;;;;5133798;27;19918;-76
2022/05/01 08:31:24;;;;;;;;;;;11.60;99.90;;;;;;5134115;27;20284;-76
2022/05/01 08:33:50;;;;;;;;;;;11.60;99.90;;;;;;5133354;27;19907;-76
2022/05/01 08:36:16;;;;;;;;;;;11.70;99.90;;;;;;5133499;27;19914;-75
2022/05/01 08:38:42;;;;;;;;;;;11.70;99.90;;;;;;5115203;27;19914;-76
2022/05/01 08:41:08;;;;;;;;;;;11.70;99.90;;;;;;5133951;27;20299;-76
2022/05/01 08:43:34;;;;;;;;;;;11.70;99.90;;;;;;5133487;27;19908;-76
2022/05/01 08:46:09;;;;;;;;;;;11.70;99.90;;;;;;5133050;27;20447;-76
2022/05/01 08:48:39;;;;;;;;;;;11.70;99.90;;;;;;5133917;27;19939;-76
2022/05/01 08:51:05;;;;;;;;;;;11.70;99.90;;;;;;5133038;27;19911;-76
2022/05/01 08:53:31;;;;;;;;;;;11.70;99.90;;;;;;5133764;27;19934;-76
2022/05/01 08:55:57;;;;;;;;;;;11.70;99.90;;;;;;5114645;28;19923;-73
2022/05/01 08:58:23;;;;;;;;;;;11.70;99.90;;;;;;5133820;28;19908;-76
2022/05/01 09:00:50;;;;;;;;;;;11.70;99.90;;;;;;5133196;28;19907;-76
2022/05/01 09:03:16;;;;;;;;;;;11.70;99.90;;;;;;5133618;28;19939;-76
2022/05/01 09:05:41;;;;;;;;;;;11.70;99.90;;;;;;5133412;28;19908;-76
2022/05/01 09:08:07;;;;;;;;;;;11.70;99.90;;;;;;5133548;28;19915;-76
2022/05/01 09:10:33;;;;;;;;;;;11.80;99.90;;;;;;5114766;28;19980;-78
2022/05/01 09:12:58;;;;;;;;;;;11.80;99.90;;;;;;5132992;28;19963;-79
2022/05/01 09:15:41;;;;;;;;;;;11.70;99.90;;;;;;5133655;28;19955;-79
2022/05/01 09:18:08;;;;;;;;;;;11.70;99.90;;;;;;5132940;28;19911;-79
2022/05/01 09:20:34;;;;;;;;;;;11.70;99.90;;;;;;5133350;28;20393;-78
2022/05/01 09:23:00;;;;;;;;;;;11.70;99.90;;;;;;5132580;28;19908;-78
2022/05/01 09:25:27;;;;;;;;;;;11.70;99.90;;;;;;5133863;28;20103;-78
2022/05/01 09:28:05;;;;;;;;;;;11.70;99.90;;;;;;5132909;28;19961;-78
2022/05/01 09:30:42;;;;;;;;;;;11.70;99.90;;;;;;5134769;28;19911;-86
2022/05/01 09:33:16;;;;;;;;;;;11.70;99.90;;;;;;5132983;28;19922;-85
2022/05/01 09:35:42;;;;;;;;;;;11.80;99.90;;;;;;5133487;28;19921;-85
2022/05/01 09:38:14;;;;;;;;;;;11.80;99.90;;;;;;5132652;28;19912;-84
2022/05/01 09:40:39;;;;;;;;;;;11.80;99.90;;;;;;5133366;28;19908;-81
2022/05/01 09:43:05;;;;;;;;;;;11.80;99.90;;;;;;5132465;28;20532;-81
2022/05/01 09:45:31;;;;;;;;;;;11.70;99.90;;;;;;5132999;28;19990;-82
2022/05/01 09:47:57;;;;;;;;;;;11.70;99.90;;;;;;5114280;28;19908;-81
2022/05/01 09:50:49;;;;;;;;;;;11.60;99.90;;;;;;5114823;28;19911;-82
2022/05/01 09:53:15;;;;;;;;;;;11.60;99.90;;;;;;5127783;28;19917;-83
2022/05/01 09:55:41;;;;;;;;;;;11.60;99.90;;;;;;5133953;27;19998;-85
2022/05/01 09:58:07;;;;;;;;;;;11.60;99.90;;;;;;5118323;27;20089;-83
2022/05/01 10:00:35;;;;;;;;;;;11.60;99.90;;;;;;5136903;27;20294;-85
2022/05/01 10:03:18;;;;;;;;;;;11.60;99.90;;;;;;5136332;27;19908;-87
2022/05/01 10:05:44;;;;;;;;;;;11.60;99.90;;;;;;5118430;27;19907;-83
2022/05/01 10:08:11;;;;;;;;;;;11.70;99.90;;;;;;5136431;27;20344;-81
2022/05/01 10:10:37;;;;;;;;;;;11.80;99.90;;;;;;5136667;27;19911;-84
2022/05/01 10:13:02;;;;;;;;;;;11.90;99.90;;;;;;5136536;27;19912;-84
2022/05/01 10:15:28;;;;;;;;;;;12.00;99.90;;;;;;5136326;27;20002;-86
2022/05/01 10:17:53;;;;;;;;;;;12.00;99.90;;;;;;5136120;27;19907;-86
2022/05/01 10:20:20;;;;;;;;;;;12.10;99.90;;;;;;5136851;27;19990;-86
2022/05/01 10:22:46;;;;;;;;;;;12.20;99.90;;;;;;5117913;27;19907;-85
2022/05/01 10:25:16;;;;;;;;;;;12.30;99.90;;;;;;5135891;27;19999;-84
2022/05/01 10:28:04;;;;;;;;;;;12.40;99.90;;;;;;5136577;27;19907;-84
2022/05/01 10:33:38;;;;;;;;;;;12.30;99.90;;;;;;5136649;27;19964;-85
2022/05/01 10:36:03;;;;;;;;;;;12.30;99.90;;;;;;5136050;27;19953;-85
2022/05/01 10:38:48;;;;;;;;;;;12.30;99.90;;;;;;5136728;27;20282;-84
2022/05/01 10:41:15;;;;;;;;;;;12.10;99.90;;;;;;5116823;27;19957;-84
2022/05/01 10:43:52;;;;;;;;;;;12.00;99.90;;;;;;5117874;27;20348;-84
2022/05/01 10:46:21;;;;;;;;;;;12.00;99.90;;;;;;5135969;27;20223;-84
2022/05/01 10:48:46;;;;;;;;;;;12.00;99.90;;;;;;5135532;27;19985;-84
2022/05/01 10:51:27;;;;;;;;;;;12.00;99.90;;;;;;5134758;27;20380;-84
2022/05/01 10:54:15;;;;;;;;;;;12.00;99.90;;;;;;5134880;27;19912;-83
2022/05/01 10:56:47;;;;;;;;;;;12.00;99.90;;;;;;5135334;27;19998;-81
2022/05/01 10:59:31;;;;;;;;;;;12.00;99.90;;;;;;5134870;27;19908;-80
2022/05/01 11:01:58;;;;;;;;;;;12.00;99.90;;;;;;5116302;27;20271;-84
2022/05/01 11:04:23;;;;;;;;;;;12.00;99.90;;;;;;5134972;27;19911;-81
2022/05/01 11:06:50;;;;;;;;;;;11.90;99.90;;;;;;5116628;27;19956;-80
2022/05/01 11:09:19;;;;;;;;;;;12.10;99.90;;;;;;5134733;27;19914;-82
2022/05/01 11:11:45;;;;;;;;;;;12.20;99.90;;;;;;5134902;27;19911;-81
2022/05/01 11:14:13;;;;;;;;;;;12.20;99.90;;;;;;5134601;27;19908;-84
2022/05/01 11:16:49;;;;;;;;;;;12.10;99.90;;;;;;5134762;27;19911;-83
2022/05/01 11:19:15;;;;;;;;;;;12.20;99.90;;;;;;5116119;27;19907;-85
2022/05/01 11:21:41;;;;;;;;;;;12.30;99.90;;;;;;5116377;27;19990;-84
2022/05/01 11:24:08;;;;;;;;;;;12.20;99.90;;;;;;5115902;27;20015;-84
2022/05/01 11:26:33;;;;;;;;;;;12.10;99.90;;;;;;5134776;27;20302;-84
2022/05/01 11:29:13;;;;;;;;;;;12.10;99.90;;;;;;5133857;27;19907;-83
2022/05/01 11:31:46;;;;;;;;;;;11.90;99.90;;;;;;5134322;27;19925;-83
2022/05/01 11:34:24;;;;;;;;;;;11.90;99.90;;;;;;5133884;27;20120;-84
2022/05/01 11:36:53;;;;;;;;;;;11.90;99.90;;;;;;5115288;27;19908;-82
2022/05/01 11:39:22;;;;;;;;;;;12.00;99.90;;;;;;5134166;27;19952;-80
2022/05/01 11:41:59;;;;;;;;;;;12.00;99.90;;;;;;5134078;27;20034;-80
2022/05/01 11:44:25;;;;;;;;;;;12.20;99.90;;;;;;5134207;27;20756;-79
2022/05/01 11:46:55;;;;;;;;;;;12.30;99.90;;;;;;5115977;27;19907;-78
2022/05/01 11:49:21;;;;;;;;;;;12.40;99.90;;;;;;5134439;27;19990;-77
2022/05/01 11:51:47;;;;;;;;;;;12.50;99.90;;;;;;5134096;27;19919;-77
2022/05/01 11:54:15;;;;;;;;;;;12.60;99.90;;;;;;5133379;27;19938;-79
2022/05/01 12:02:26;;;;;;;;;;;12.80;99.90;;;;;;5133661;27;19914;-82
2022/05/01 12:04:58;;;;;;;;;;;12.90;99.90;;;;;;5133907;27;19907;-79
2022/05/01 12:07:24;;;;;;;;;;;13.00;99.90;;;;;;5134063;27;20004;-77
2022/05/01 12:09:52;;;;;;;;;;;13.10;99.90;;;;;;5133440;27;19985;-76
2022/05/01 12:12:22;;;;;;;;;;;13.10;99.90;;;;;;5133957;27;19921;-76
2022/05/01 12:14:48;;;;;;;;;;;13.00;99.90;;;;;;5134009;27;20364;-76
2022/05/01 12:17:15;;;;;;;;;;;13.00;99.90;;;;;;5133723;27;19903;-76
2022/05/01 12:19:42;;;;;;;;;;;12.90;99.90;;;;;;5133778;27;19915;-76
2022/05/01 12:22:10;;;;;;;;;;;12.80;99.90;;;;;;5115233;27;20392;-75
2022/05/01 12:24:36;;;;;;;;;;;12.80;99.90;;;;;;5134145;27;19932;-76
2022/05/01 12:27:02;;;;;;;;;;;12.80;99.90;;;;;;5133360;27;20276;-76
2022/05/01 12:29:28;;;;;;;;;;;12.90;99.90;;;;;;5134154;27;19912;-75
2022/05/01 12:32:03;;;;;;;;;;;13.00;99.90;;;;;;5134098;27;19964;-75
2022/05/01 12:34:29;;;;;;;;;;;13.10;99.90;;;;;;5133582;27;19911;-75
2022/05/01 12:36:59;;;;;;;;;;;13.10;99.90;;;;;;5133498;27;19967;-75
2022/05/01 12:39:25;;;;;;;;;;;13.10;99.90;;;;;;5133582;27;20249;-76
2022/05/01 12:45:07;;;;;;;;;;;13.00;99.90;;;;;;5133716;27;19953;-75
2022/05/01 12:47:42;;;;;;;;;;;12.90;99.90;;;;;;5133758;27;20268;-75
2022/05/01 12:50:23;;;;;;;;;;;13.00;99.90;;;;;;5133235;27;20062;-75
2022/05/01 12:52:53;;;;;;;;;;;12.90;99.90;;;;;;5133788;27;19915;-75
2022/05/01 12:55:27;;;;;;;;;;;13.00;99.90;;;;;;5132963;27;19936;-75
2022/05/01 12:57:56;;;;;;;;;;;12.90;99.90;;;;;;5133295;28;19934;-76
2022/05/01 13:00:37;;;;;;;;;;;13.20;99.90;;;;;;5132823;28;20325;-77
2022/05/01 13:03:19;;;;;;;;;;;13.20;99.90;;;;;;5132801;28;19907;-76
2022/05/01 13:06:03;;;;;;;;;;;13.30;99.90;;;;;;5133593;28;19907;-76
2022/05/01 13:08:34;;;;;;;;;;;13.50;99.90;;;;;;5133295;28;19915;-76
2022/05/01 13:11:09;;;;;;;;;;;13.60;99.90;;;;;;5132937;28;19911;-76
2022/05/01 13:13:48;;;;;;;;;;;13.60;99.90;;;;;;5133328;28;19926;-75
2022/05/01 13:16:15;;;;;;;;;;;13.80;99.90;;;;;;5132662;28;19907;-76
2022/05/01 13:18:41;;;;;;;;;;;13.90;99.90;;;;;;5133421;28;19913;-75
2022/05/01 13:21:06;;;;;;;;;;;13.90;99.90;;;;;;5132976;28;20349;-75
2022/05/01 13:23:32;;;;;;;;;;;13.90;99.90;;;;;;5133317;28;20237;-75
2022/05/01 13:25:58;;;;;;;;;;;14.00;99.90;;;;;;5133042;28;19951;-76
2022/05/01 13:28:26;;;;;;;;;;;14.20;99.90;;;;;;5132945;28;20392;-76
2022/05/01 13:30:53;;;;;;;;;;;14.10;99.90;;;;;;5134589;27;19996;-76
2022/05/01 13:33:18;;;;;;;;;;;14.20;99.90;;;;;;5118481;27;20566;-75
2022/05/01 13:35:44;;;;;;;;;;;14.30;99.90;;;;;;5137435;27;19959;-75
2022/05/01 13:38:09;;;;;;;;;;;14.30;99.90;;;;;;5137061;27;20371;-75
2022/05/01 13:46:04;;;;;;;;;;;14.50;99.90;;;;;;5136587;27;19954;-75
2022/05/01 13:48:30;;;;;;;;;;;14.40;99.90;;;;;;5137050;27;19907;-75
2022/05/01 13:50:56;;;;;;;;;;;14.60;99.90;;;;;;5136960;27;20352;-75
2022/05/01 13:53:21;;;;;;;;;;;14.70;99.90;;;;;;5136314;27;20613;-75
2022/05/01 13:55:47;;;;;;;;;;;14.70;99.90;;;;;;5118320;27;20048;-74
2022/05/01 13:58:12;;;;;;;;;;;14.80;99.90;;;;;;5136532;27;19965;-75
2022/05/01 14:00:38;;;;;;;;;;;14.70;99.90;;;;;;5136535;27;20245;-75
2022/05/01 14:03:07;;;;;;;;;;;14.60;99.90;;;;;;5136200;27;19908;-75
2022/05/01 14:05:34;;;;;;;;;;;14.50;99.90;;;;;;5136524;27;19930;-75
2022/05/01 14:07:59;;;;;;;;;;;14.50;99.90;;;;;;5136518;27;19907;-75
2022/05/01 14:10:26;;;;;;;;;;;14.30;99.90;;;;;;5135744;27;19911;-75
2022/05/01 14:12:52;;;;;;;;;;;14.30;99.90;;;;;;5136088;27;19911;-74
2022/05/01 14:15:17;;;;;;;;;;;14.40;99.90;;;;;;5135874;27;19907;-75
2022/05/01 14:17:43;;;;;;;;;;;14.40;99.90;;;;;;5136377;27;19939;-75
2022/05/01 14:20:08;;;;;;;;;;;14.60;99.90;;;;;;5135794;27;19962;-75
2022/05/01 14:22:34;;;;;;;;;;;14.40;99.90;;;;;;5135920;27;19907;-75
2022/05/01 14:25:01;;;;;;;;;;;14.50;99.90;;;;;;5136336;27;20271;-75
2022/05/01 14:27:27;;;;;;;;;;;14.50;99.90;;;;;;5135874;27;19907;-75
2022/05/01 14:29:53;;;;;;;;;;;14.80;99.90;;;;;;5117953;27;20360;-75
2022/05/01 14:32:22;;;;;;;;;;;14.90;99.90;;;;;;5135778;27;19998;-75
2022/05/01 14:34:50;;;;;;;;;;;14.90;99.90;;;;;;5135798;27;20002;-75
2022/05/01 14:37:37;;;;;;;;;;;14.90;99.90;;;;;;5135452;27;19947;-74
2022/05/01 14:40:04;;;;;;;;;;;14.80;99.90;;;;;;5084479;27;19957;-75
2022/05/01 14:42:33;;;;;;;;;;;14.90;99.90;;;;;;5135494;27;19914;-75
2022/05/01 14:45:03;;;;;;;;;;;15.00;99.90;;;;;;5136237;27;19927;-75
2022/05/01 14:47:28;;;;;;;;;;;15.10;99.90;;;;;;5138571;27;19915;-75
2022/05/01 14:49:57;;;;;;;;;;;15.20;99.90;;;;;;5146941;27;20229;-75
2022/05/01 14:52:24;;;;;;;;;;;14.80;99.90;;;;;;5140286;27;19951;-75
2022/05/01 14:54:49;;;;;;;;;;;14.80;99.90;;;;;;5135694;27;19937;-75
2022/05/01 14:57:19;;;;;;;;;;;14.70;99.90;;;;;;5135104;27;19927;-74